Time;durP1;ratioP1;P1;durP2;ratioP2;P2;SDS_P1;SDS_P2;PMS_P1;PMS_P2;Temp;Humidity;BMP_temperature;BMP_pressure;BME280_temperature;BME280_humidity;BME280_pressure;Samples;Min_cycle;Max_cycle;Signal;HPM_P1;HPM_P2
2021/12/26 00:01:49;;;;;;;88.97;29.20;;;-12.80;99.90;;;;;;5112422;28;20026;-75
2021/12/26 00:04:16;;;;;;;96.47;33.27;;;-12.80;99.90;;;;;;5111374;28;20020;-76
2021/12/26 00:06:42;;;;;;;77.27;29.30;;;-12.80;99.90;;;;;;5111334;28;20358;-73
2021/12/26 00:09:08;;;;;;;71.97;24.50;;;-12.80;99.90;;;;;;5110820;28;20084;-73
2021/12/26 00:11:34;;;;;;;91.13;30.10;;;-12.80;99.90;;;;;;5111254;28;20065;-74
2021/12/26 00:13:59;;;;;;;92.33;30.50;;;-12.80;99.90;;;;;;5109763;28;20024;-74
2021/12/26 00:16:25;;;;;;;76.87;27.23;;;-12.80;99.90;;;;;;5090829;28;20386;-75
2021/12/26 00:18:51;;;;;;;80.10;29.17;;;-12.70;99.90;;;;;;5090702;28;20077;-74
2021/12/26 00:21:19;;;;;;;78.87;26.87;;;-12.70;99.90;;;;;;5090791;28;20039;-74
2021/12/26 00:23:46;;;;;;;56.33;23.80;;;-12.70;99.90;;;;;;5090707;28;20031;-75
2021/12/26 00:26:12;;;;;;;74.53;27.07;;;-12.70;99.90;;;;;;5090590;28;20080;-76
2021/12/26 00:28:37;;;;;;;72.10;25.93;;;-12.80;99.90;;;;;;5090440;28;20130;-76
2021/12/26 00:31:04;;;;;;;86.07;28.60;;;-12.70;99.90;;;;;;5090448;28;20111;-76
2021/12/26 00:33:32;;;;;;;77.10;28.77;;;-12.90;99.90;;;;;;5090469;28;20024;-76
2021/12/26 00:35:59;;;;;;;88.80;31.00;;;-13.00;99.10;;;;;;5092109;28;20016;-76
2021/12/26 00:38:24;;;;;;;109.17;37.63;;;-13.00;96.90;;;;;;5090368;28;20036;-76
2021/12/26 00:40:50;;;;;;;96.67;35.63;;;-13.10;96.80;;;;;;5090343;28;20147;-76
2021/12/26 00:43:16;;;;;;;112.27;39.10;;;-13.10;97.40;;;;;;5090481;28;20496;-76
2021/12/26 00:45:42;;;;;;;108.40;36.57;;;-13.10;97.80;;;;;;5091662;28;20042;-77
2021/12/26 00:48:08;;;;;;;104.63;36.47;;;-13.10;98.10;;;;;;5090263;28;20034;-77
2021/12/26 00:50:36;;;;;;;74.17;26.93;;;-13.10;98.40;;;;;;5090216;28;20020;-76
2021/12/26 00:53:03;;;;;;;48.23;18.57;;;-13.20;98.90;;;;;;5091444;28;20036;-76
2021/12/26 00:55:29;;;;;;;44.03;18.30;;;-13.30;99.90;;;;;;5091466;28;20051;-76
2021/12/26 00:57:55;;;;;;;49.03;18.90;;;-13.30;99.90;;;;;;5091017;28;20024;-76
2021/12/26 01:00:25;;;;;;;41.57;18.07;;;-13.40;99.90;;;;;;5090048;28;20107;-76
2021/12/26 01:02:51;;;;;;;47.40;18.03;;;-13.30;99.90;;;;;;5091149;28;20024;-76
2021/12/26 01:05:18;;;;;;;35.90;16.23;;;-13.30;99.90;;;;;;5089761;28;20574;-76
2021/12/26 01:07:58;;;;;;;42.50;17.73;;;-13.30;99.90;;;;;;5089554;28;20040;-76
2021/12/26 01:10:33;;;;;;;50.93;18.77;;;-13.30;99.90;;;;;;5089843;28;20428;-76
2021/12/26 01:12:59;;;;;;;59.07;24.23;;;-13.20;99.90;;;;;;5090031;28;20493;-75
2021/12/26 01:15:25;;;;;;;91.03;30.57;;;-13.30;99.90;;;;;;5089840;28;20055;-76
2021/12/26 01:17:56;;;;;;;94.77;32.43;;;-13.30;99.90;;;;;;5089932;28;20059;-76
2021/12/26 01:23:16;;;;;;;87.70;31.42;;;-13.30;99.90;;;;;;5095555;28;20046;-76
2021/12/26 01:25:42;;;;;;;87.70;27.87;;;-13.30;99.90;;;;;;5095314;28;20047;-76
2021/12/26 01:28:08;;;;;;;66.70;22.83;;;-13.40;99.80;;;;;;5093815;28;20465;-77
2021/12/26 01:30:34;;;;;;;62.80;21.30;;;-13.40;99.90;;;;;;5095111;28;20032;-76
2021/12/26 01:33:00;;;;;;;38.23;15.10;;;-13.30;99.90;;;;;;5093834;28;20081;-76
2021/12/26 01:35:25;;;;;;;24.77;12.83;;;-13.40;99.90;;;;;;5095034;28;20024;-77
2021/12/26 01:37:51;;;;;;;32.07;12.63;;;-13.40;99.90;;;;;;5093976;28;20024;-77
2021/12/26 01:40:17;;;;;;;41.37;15.87;;;-13.40;99.90;;;;;;5093719;28;20031;-76
2021/12/26 01:42:43;;;;;;;45.60;16.33;;;-13.40;99.90;;;;;;5093678;28;20069;-76
2021/12/26 01:45:11;;;;;;;55.83;20.37;;;-13.30;99.90;;;;;;5093865;28;20039;-76
2021/12/26 01:47:36;;;;;;;59.97;22.07;;;-13.30;99.90;;;;;;5093549;28;20077;-76
2021/12/26 01:50:03;;;;;;;85.77;32.10;;;-13.30;99.90;;;;;;5093648;28;20373;-76
2021/12/26 01:52:29;;;;;;;105.90;34.27;;;-13.30;99.90;;;;;;5093397;28;20424;-76
2021/12/26 01:55:20;;;;;;;108.80;37.03;;;-13.30;99.90;;;;;;5093526;28;20024;-76
2021/12/26 01:57:46;;;;;;;93.07;32.13;;;-13.30;99.90;;;;;;5094553;28;20470;-76
2021/12/26 02:00:12;;;;;;;57.53;22.77;;;-13.30;99.90;;;;;;5093447;28;20023;-76
2021/12/26 02:02:37;;;;;;;69.63;27.50;;;-13.40;99.90;;;;;;5093219;28;20074;-77
2021/12/26 02:05:03;;;;;;;68.03;29.87;;;-13.30;99.90;;;;;;5093465;28;20408;-76
2021/12/26 02:07:29;;;;;;;71.73;28.07;;;-13.40;99.90;;;;;;5093155;28;20113;-77
2021/12/26 02:09:54;;;;;;;68.43;23.53;;;-13.40;99.90;;;;;;5093067;28;20123;-77
2021/12/26 02:12:20;;;;;;;55.57;20.30;;;-13.40;99.90;;;;;;5093187;28;20028;-77
2021/12/26 02:14:46;;;;;;;44.17;17.37;;;-13.40;99.90;;;;;;5093142;28;20028;-76
2021/12/26 02:17:15;;;;;;;40.40;17.57;;;-13.50;99.90;;;;;;5093225;28;20401;-77
2021/12/26 02:19:42;;;;;;;37.50;15.07;;;-13.50;99.90;;;;;;5094149;28;20095;-76
2021/12/26 02:22:14;;;;;;;95.30;25.77;;;-13.50;99.90;;;;;;5092948;28;20115;-76
2021/12/26 02:27:32;;;;;;;34.07;11.77;;;-13.50;99.90;;;;;;5094582;28;20044;-76
2021/12/26 02:30:12;;;;;;;31.58;13.05;;;-13.50;99.90;;;;;;5092835;28;20499;-76
2021/12/26 02:32:38;;;;;;;41.27;12.57;;;-13.50;99.90;;;;;;5092604;28;20428;-76
2021/12/26 02:35:04;;;;;;;40.13;15.07;;;-13.50;99.90;;;;;;5092731;28;20024;-76
2021/12/26 02:37:30;;;;;;;38.03;14.03;;;-13.50;99.90;;;;;;5092733;28;20046;-76
2021/12/26 02:39:56;;;;;;;25.00;10.40;;;-13.50;99.90;;;;;;5092630;28;20016;-76
2021/12/26 02:42:23;;;;;;;33.60;11.60;;;-13.50;99.90;;;;;;5092563;28;20101;-76
2021/12/26 02:44:49;;;;;;;31.37;11.20;;;-13.50;99.90;;;;;;5092413;28;20032;-77
2021/12/26 02:47:33;;;;;;;13.73;8.87;;;-13.60;99.90;;;;;;5092486;28;20066;-77
2021/12/26 02:50:10;;;;;;;25.97;11.80;;;-13.60;99.90;;;;;;5092523;28;20377;-76
2021/12/26 02:52:36;;;;;;;19.67;9.73;;;-13.70;99.90;;;;;;5093610;28;20028;-77
2021/12/26 02:55:03;;;;;;;16.97;8.60;;;-13.70;99.90;;;;;;5092373;28;20051;-77
2021/12/26 02:57:28;;;;;;;19.73;10.17;;;-13.70;99.90;;;;;;5092176;28;20035;-77
2021/12/26 02:59:54;;;;;;;23.00;9.33;;;-13.70;99.90;;;;;;5092271;28;20119;-76
2021/12/26 03:02:20;;;;;;;30.20;11.70;;;-13.70;99.90;;;;;;5094163;28;20027;-77
2021/12/26 03:04:45;;;;;;;90.90;26.67;;;-13.70;99.90;;;;;;5097812;28;20024;-76
2021/12/26 03:07:11;;;;;;;35.40;12.73;;;-13.70;99.90;;;;;;5098157;28;20036;-77
2021/12/26 03:09:50;;;;;;;22.17;9.50;;;-13.70;99.90;;;;;;5098169;28;20023;-76
2021/12/26 03:12:15;;;;;;;14.40;7.43;;;-13.70;99.90;;;;;;5097420;28;20024;-76
2021/12/26 03:14:41;;;;;;;15.57;7.37;;;-13.70;99.90;;;;;;5115012;27;20023;-75
2021/12/26 03:17:07;;;;;;;17.27;7.67;;;-13.70;99.90;;;;;;5103247;28;20030;-76
2021/12/26 03:19:36;;;;;;;17.73;8.80;;;-13.70;99.90;;;;;;5098752;28;20027;-76
2021/12/26 03:22:03;;;;;;;37.77;13.40;;;-13.70;99.90;;;;;;5094576;28;20472;-77
2021/12/26 03:24:29;;;;;;;56.00;17.63;;;-13.70;99.90;;;;;;5091451;28;20032;-76
2021/12/26 03:26:59;;;;;;;98.10;30.33;;;-13.80;99.30;;;;;;5095832;28;20090;-77
2021/12/26 03:29:25;;;;;;;104.90;32.63;;;-13.70;98.50;;;;;;5096835;28;20485;-75
2021/12/26 03:31:50;;;;;;;110.80;30.63;;;-13.70;97.60;;;;;;5098303;28;20085;-77
2021/12/26 03:34:16;;;;;;;92.57;28.97;;;-13.80;97.00;;;;;;5098722;28;20039;-76
2021/12/26 03:36:42;;;;;;;89.57;29.03;;;-13.80;96.50;;;;;;5097967;28;20113;-75
2021/12/26 03:39:08;;;;;;;97.33;29.80;;;-13.90;96.20;;;;;;5099278;28;20043;-76
2021/12/26 03:41:34;;;;;;;110.43;33.07;;;-13.90;97.00;;;;;;5100863;28;20020;-77
2021/12/26 03:44:00;;;;;;;111.10;33.83;;;-13.90;96.70;;;;;;5095312;28;20036;-76
2021/12/26 03:46:26;;;;;;;66.13;19.73;;;-13.90;96.90;;;;;;5097591;28;20382;-76
2021/12/26 03:48:51;;;;;;;74.50;23.83;;;-14.00;97.10;;;;;;5096002;28;20028;-76
2021/12/26 03:51:19;;;;;;;55.17;21.37;;;-14.00;97.40;;;;;;5094777;28;20024;-76
2021/12/26 03:53:45;;;;;;;85.80;28.37;;;-14.00;96.90;;;;;;5097462;28;20016;-76
2021/12/26 03:56:10;;;;;;;111.17;36.80;;;-14.00;96.60;;;;;;5097246;28;20077;-77
2021/12/26 03:58:38;;;;;;;88.97;29.83;;;-14.00;96.70;;;;;;5100132;28;20457;-76
2021/12/26 04:01:03;;;;;;;95.33;28.47;;;-14.00;97.10;;;;;;5098972;28;20427;-75
2021/12/26 04:03:29;;;;;;;44.67;18.60;;;-14.00;97.70;;;;;;5095021;28;20020;-77
2021/12/26 04:05:55;;;;;;;34.93;11.93;;;-14.00;97.70;;;;;;5096245;28;20371;-76
2021/12/26 04:08:21;;;;;;;38.73;11.97;;;-14.00;97.80;;;;;;5099377;28;20035;-77
2021/12/26 04:10:46;;;;;;;16.60;7.87;;;-14.00;98.40;;;;;;5098185;28;20030;-76
2021/12/26 04:13:12;;;;;;;30.37;10.90;;;-14.00;98.90;;;;;;5112601;27;20469;-77
2021/12/26 04:15:38;;;;;;;14.23;8.40;;;-14.00;99.70;;;;;;5104598;28;20062;-76
2021/12/26 04:18:05;;;;;;;29.13;10.63;;;-14.00;99.90;;;;;;5095456;28;20065;-76
2021/12/26 04:20:30;;;;;;;38.03;12.53;;;-14.00;99.90;;;;;;5102440;28;20024;-76
2021/12/26 04:22:57;;;;;;;30.37;13.27;;;-14.00;99.90;;;;;;5101606;28;20019;-77
2021/12/26 04:25:23;;;;;;;32.00;13.80;;;-14.00;99.00;;;;;;5098124;28;20024;-75
2021/12/26 04:27:49;;;;;;;32.93;12.80;;;-14.00;98.30;;;;;;5094300;28;20035;-76
2021/12/26 04:30:17;;;;;;;42.37;14.53;;;-14.00;97.50;;;;;;5098003;28;20055;-75
2021/12/26 04:32:43;;;;;;;41.80;14.27;;;-14.00;97.50;;;;;;5091908;28;20474;-76
2021/12/26 04:35:09;;;;;;;35.27;12.40;;;-14.00;98.00;;;;;;5103305;28;20031;-77
2021/12/26 04:37:35;;;;;;;33.00;13.53;;;-14.00;98.80;;;;;;5110422;28;20024;-76
2021/12/26 04:40:03;;;;;;;25.27;11.77;;;-14.10;98.70;;;;;;5094977;28;20026;-76
2021/12/26 04:42:29;;;;;;;35.27;11.63;;;-14.10;97.90;;;;;;5090018;28;20023;-76
2021/12/26 04:44:55;;;;;;;28.13;11.63;;;-14.10;96.60;;;;;;5090222;28;20028;-76
2021/12/26 04:47:20;;;;;;;29.23;12.80;;;-14.10;96.10;;;;;;5090140;28;20401;-76
2021/12/26 04:49:46;;;;;;;26.20;11.83;;;-14.20;95.50;;;;;;5090123;28;20077;-76
2021/12/26 04:52:12;;;;;;;31.83;12.30;;;-14.20;95.20;;;;;;5102083;28;20020;-77
2021/12/26 04:54:37;;;;;;;22.33;11.13;;;-14.20;94.80;;;;;;5111687;28;20109;-76
2021/12/26 04:57:03;;;;;;;29.07;12.57;;;-14.20;94.40;;;;;;5109596;28;20534;-78
2021/12/26 04:59:29;;;;;;;23.43;10.70;;;-14.20;94.00;;;;;;5110272;28;20106;-76
2021/12/26 05:01:54;;;;;;;25.90;11.33;;;-14.30;94.10;;;;;;5110235;28;20519;-76
2021/12/26 05:04:20;;;;;;;24.23;10.73;;;-14.30;94.70;;;;;;5111633;28;20046;-76
2021/12/26 05:06:47;;;;;;;30.40;12.20;;;-14.30;95.20;;;;;;5110078;28;20054;-76
2021/12/26 05:09:14;;;;;;;27.10;11.07;;;-14.30;96.10;;;;;;5110330;28;20056;-76
2021/12/26 05:11:40;;;;;;;29.03;14.60;;;-14.30;96.60;;;;;;5110409;28;20306;-76
2021/12/26 05:14:05;;;;;;;33.73;17.97;;;-14.30;96.50;;;;;;5108885;28;20048;-76
2021/12/26 05:16:31;;;;;;;31.73;17.23;;;-14.30;95.60;;;;;;5089653;28;20020;-76
2021/12/26 05:18:57;;;;;;;36.00;15.97;;;-14.30;94.80;;;;;;5090039;28;20026;-76
2021/12/26 05:21:23;;;;;;;34.50;14.20;;;-14.30;95.10;;;;;;5093037;28;20028;-76
2021/12/26 05:23:48;;;;;;;21.50;9.67;;;-14.30;95.20;;;;;;5110350;28;20024;-76
2021/12/26 05:26:14;;;;;;;14.90;8.13;;;-14.30;95.90;;;;;;5106245;28;20031;-77
2021/12/26 05:28:39;;;;;;;11.53;6.37;;;-14.40;97.00;;;;;;5089835;28;20067;-78
2021/12/26 05:31:05;;;;;;;13.13;6.30;;;-14.30;98.60;;;;;;5089731;28;20032;-76
2021/12/26 05:33:31;;;;;;;14.47;8.97;;;-14.30;99.70;;;;;;5091161;28;20104;-76
2021/12/26 05:35:56;;;;;;;23.37;10.43;;;-14.30;99.40;;;;;;5089630;28;20016;-76
2021/12/26 05:38:25;;;;;;;19.40;11.47;;;-14.30;98.90;;;;;;5099905;28;20055;-76
2021/12/26 05:40:51;;;;;;;28.93;12.73;;;-14.30;98.50;;;;;;5110306;28;20024;-76
2021/12/26 05:43:16;;;;;;;24.73;12.53;;;-14.30;97.50;;;;;;5111092;28;20139;-76
2021/12/26 05:45:42;;;;;;;23.03;11.23;;;-14.40;96.70;;;;;;5111232;28;20081;-76
2021/12/26 05:48:07;;;;;;;31.13;11.53;;;-14.40;96.10;;;;;;5109610;28;20054;-76
2021/12/26 05:50:33;;;;;;;32.90;14.27;;;-14.40;95.10;;;;;;5110052;28;20072;-76
2021/12/26 05:52:58;;;;;;;34.40;12.43;;;-14.40;95.30;;;;;;5110110;28;20028;-76
2021/12/26 05:55:24;;;;;;;17.43;10.83;;;-14.40;95.70;;;;;;5111135;28;20412;-76
2021/12/26 05:57:49;;;;;;;19.97;10.47;;;-14.40;96.80;;;;;;5109922;28;20027;-78
2021/12/26 06:00:18;;;;;;;21.10;10.00;;;-14.40;97.10;;;;;;5106355;28;20024;-75
2021/12/26 06:02:44;;;;;;;12.50;7.97;;;-14.40;96.90;;;;;;5089362;28;20166;-76
2021/12/26 06:05:10;;;;;;;17.23;8.67;;;-14.50;97.20;;;;;;5089464;28;20028;-76
2021/12/26 06:07:36;;;;;;;15.17;7.87;;;-14.50;98.10;;;;;;5090238;28;20516;-76
2021/12/26 06:10:04;;;;;;;16.63;8.37;;;-14.50;98.70;;;;;;5093162;28;20114;-76
2021/12/26 06:12:30;;;;;;;14.30;7.67;;;-14.50;99.50;;;;;;5093147;28;20710;-76
2021/12/26 06:14:55;;;;;;;12.43;7.97;;;-14.50;99.90;;;;;;5093197;28;20024;-76
2021/12/26 06:17:21;;;;;;;14.57;8.20;;;-14.40;99.90;;;;;;5094446;28;20024;-77
2021/12/26 06:19:46;;;;;;;24.77;8.87;;;-14.40;99.90;;;;;;5092879;28;20459;-76
2021/12/26 06:22:12;;;;;;;13.33;7.23;;;-14.40;99.90;;;;;;5094408;28;20111;-76
2021/12/26 06:24:37;;;;;;;21.50;8.37;;;-14.30;99.90;;;;;;5093157;28;20232;-75
2021/12/26 06:27:04;;;;;;;24.47;8.57;;;-14.30;99.90;;;;;;5092930;28;20036;-77
2021/12/26 06:29:29;;;;;;;17.57;8.03;;;-14.30;99.90;;;;;;5092691;28;20059;-75
2021/12/26 06:31:55;;;;;;;16.67;7.60;;;-14.30;99.90;;;;;;5092894;28;20087;-76
2021/12/26 06:34:20;;;;;;;17.63;7.77;;;-14.30;99.90;;;;;;5096192;28;20027;-75
2021/12/26 06:36:46;;;;;;;16.13;7.30;;;-14.30;99.90;;;;;;5102550;28;20051;-76
2021/12/26 06:39:11;;;;;;;20.47;9.63;;;-14.30;99.90;;;;;;5102582;28;20115;-78
2021/12/26 06:41:38;;;;;;;19.73;8.33;;;-14.30;99.90;;;;;;5093238;28;20116;-75
2021/12/26 06:44:07;;;;;;;21.70;9.60;;;-14.20;99.90;;;;;;5091616;28;20036;-75
2021/12/26 06:46:34;;;;;;;16.53;8.27;;;-14.20;99.90;;;;;;5090834;28;20097;-75
2021/12/26 06:48:59;;;;;;;40.23;15.37;;;-14.20;99.90;;;;;;5103044;28;20397;-76
2021/12/26 06:51:25;;;;;;;11.50;6.87;;;-14.20;99.90;;;;;;5092207;28;20036;-76
2021/12/26 06:53:51;;;;;;;32.00;14.67;;;-14.10;99.90;;;;;;5091799;28;20031;-75
2021/12/26 06:56:16;;;;;;;54.93;19.83;;;-14.00;99.90;;;;;;5092902;28;20533;-76
2021/12/26 06:58:42;;;;;;;112.93;37.77;;;-14.00;99.90;;;;;;5088482;28;20028;-76
2021/12/26 07:01:10;;;;;;;35.57;15.37;;;-13.90;99.90;;;;;;5088111;28;20058;-76
2021/12/26 07:03:36;;;;;;;30.30;12.37;;;-13.80;99.90;;;;;;5088285;28;20016;-75
2021/12/26 07:06:02;;;;;;;27.13;10.37;;;-13.80;99.90;;;;;;5088317;28;20086;-78
2021/12/26 07:08:27;;;;;;;29.20;10.87;;;-13.80;99.90;;;;;;5090975;28;20082;-75
2021/12/26 07:10:53;;;;;;;35.50;12.00;;;-13.80;99.90;;;;;;5091486;28;20394;-77
2021/12/26 07:13:18;;;;;;;29.43;13.07;;;-13.80;99.90;;;;;;5109666;28;20036;-76
2021/12/26 07:15:44;;;;;;;29.17;12.60;;;-13.70;99.90;;;;;;5111790;28;20107;-76
2021/12/26 07:18:10;;;;;;;25.27;11.70;;;-13.70;99.90;;;;;;5112957;27;20069;-77
2021/12/26 07:20:35;;;;;;;26.80;10.57;;;-13.80;99.90;;;;;;5094031;28;20039;-76
2021/12/26 07:23:01;;;;;;;29.70;10.57;;;-13.70;99.90;;;;;;5091363;28;20111;-77
2021/12/26 07:25:26;;;;;;;30.17;11.87;;;-13.70;99.90;;;;;;5090954;28;20510;-76
2021/12/26 07:27:52;;;;;;;25.63;10.27;;;-13.70;99.90;;;;;;5092391;28;20071;-76
2021/12/26 07:30:18;;;;;;;23.90;11.80;;;-13.60;99.90;;;;;;5103296;28;20016;-76
2021/12/26 07:32:43;;;;;;;25.97;10.03;;;-13.40;99.90;;;;;;5111407;28;20035;-76
2021/12/26 07:35:10;;;;;;;44.57;14.90;;;-13.30;99.90;;;;;;5111035;28;20019;-76
2021/12/26 07:37:36;;;;;;;31.80;13.17;;;-13.10;99.90;;;;;;5110638;28;20024;-77
2021/12/26 07:40:02;;;;;;;56.93;19.47;;;-12.90;99.90;;;;;;5107318;28;20024;-76
2021/12/26 07:42:28;;;;;;;195.37;57.07;;;-12.70;99.90;;;;;;5091696;28;20638;-77
2021/12/26 07:44:54;;;;;;;406.47;104.13;;;-12.60;99.90;;;;;;5090660;28;20078;-77
2021/12/26 07:47:19;;;;;;;795.53;232.50;;;-12.40;99.90;;;;;;5091810;28;20107;-76
2021/12/26 07:49:45;;;;;;;622.97;171.77;;;-12.20;99.90;;;;;;5090718;28;20486;-76
2021/12/26 07:52:15;;;;;;;1192.93;373.37;;;-11.90;99.90;;;;;;5091102;28;20024;-76
2021/12/26 07:54:42;;;;;;;801.27;241.43;;;-11.80;99.90;;;;;;5100262;28;20038;-76
2021/12/26 07:57:08;;;;;;;706.40;200.80;;;-11.60;99.90;;;;;;5103007;28;20044;-75
2021/12/26 07:59:34;;;;;;;507.03;140.70;;;-11.50;99.90;;;;;;5107794;28;20097;-75
2021/12/26 08:02:00;;;;;;;388.27;102.57;;;-11.40;99.90;;;;;;5101881;28;20027;-77
2021/12/26 08:04:26;;;;;;;390.00;103.63;;;-11.20;99.90;;;;;;5093898;28;20016;-76
2021/12/26 08:06:53;;;;;;;293.50;77.50;;;-11.10;99.90;;;;;;5096349;28;20026;-75
2021/12/26 08:09:19;;;;;;;263.47;71.17;;;-10.90;99.90;;;;;;5098718;28;20482;-75
2021/12/26 08:11:44;;;;;;;267.97;70.80;;;-10.80;99.90;;;;;;5100184;28;20028;-75
2021/12/26 08:14:10;;;;;;;252.70;72.23;;;-10.60;99.90;;;;;;5091433;28;20035;-75
2021/12/26 08:16:35;;;;;;;280.73;73.73;;;-10.50;99.90;;;;;;5090073;28;20027;-75
2021/12/26 08:19:02;;;;;;;225.87;60.67;;;-10.30;99.90;;;;;;5090391;28;20085;-75
2021/12/26 08:21:28;;;;;;;169.70;47.17;;;-10.20;99.90;;;;;;5089162;28;20115;-75
2021/12/26 08:23:54;;;;;;;138.17;41.97;;;-10.00;99.90;;;;;;5091391;28;20100;-75
2021/12/26 08:26:19;;;;;;;129.27;39.13;;;-9.90;99.90;;;;;;5090060;28;20074;-75
2021/12/26 08:28:45;;;;;;;96.53;28.67;;;-9.70;99.90;;;;;;5100455;28;20040;-74
2021/12/26 08:31:11;;;;;;;155.57;41.77;;;-9.60;99.90;;;;;;5091138;28;20030;-75
2021/12/26 08:33:37;;;;;;;152.70;49.23;;;-9.40;99.90;;;;;;5091091;28;20109;-75
2021/12/26 08:36:04;;;;;;;62.93;20.57;;;-9.30;99.90;;;;;;5089292;28;20501;-75
2021/12/26 08:38:30;;;;;;;185.87;53.50;;;-9.20;99.90;;;;;;5089552;28;20150;-76
2021/12/26 08:40:56;;;;;;;48.47;15.50;;;-9.00;99.90;;;;;;5095258;28;20128;-75
2021/12/26 08:43:22;;;;;;;56.07;18.87;;;-8.80;99.90;;;;;;5090565;28;20074;-75
2021/12/26 08:45:49;;;;;;;53.57;20.00;;;-8.70;99.90;;;;;;5089571;28;20377;-75
2021/12/26 08:48:15;;;;;;;60.03;23.33;;;-8.60;99.90;;;;;;5089132;28;20036;-75
2021/12/26 08:50:42;;;;;;;68.77;25.57;;;-8.50;99.90;;;;;;5088918;28;20008;-75
2021/12/26 08:53:08;;;;;;;63.93;29.47;;;-8.40;99.90;;;;;;5090477;28;20608;-75
2021/12/26 08:55:34;;;;;;;61.90;29.90;;;-8.30;99.90;;;;;;5089090;28;20062;-75
2021/12/26 08:58:00;;;;;;;105.63;39.93;;;-8.20;99.90;;;;;;5089101;28;20028;-75
2021/12/26 09:00:26;;;;;;;174.43;63.73;;;-8.10;99.90;;;;;;5090274;28;20020;-75
2021/12/26 09:02:53;;;;;;;199.20;68.33;;;-8.00;99.90;;;;;;5090477;28;20047;-75
2021/12/26 09:05:19;;;;;;;101.93;36.83;;;-7.90;99.90;;;;;;5088345;28;20046;-75
2021/12/26 09:07:45;;;;;;;60.50;26.23;;;-7.80;99.90;;;;;;5090447;28;20047;-75
2021/12/26 09:10:12;;;;;;;34.57;15.17;;;-7.70;99.90;;;;;;5089222;28;20089;-75
2021/12/26 09:12:38;;;;;;;52.40;18.63;;;-7.60;99.90;;;;;;5090559;28;20036;-75
2021/12/26 09:15:07;;;;;;;57.97;21.57;;;-7.50;99.90;;;;;;5089284;28;20024;-75
2021/12/26 09:17:33;;;;;;;57.83;25.17;;;-7.40;99.90;;;;;;5093183;28;20497;-75
2021/12/26 09:19:59;;;;;;;222.13;76.30;;;-7.30;99.90;;;;;;5098508;28;20036;-75
2021/12/26 09:22:25;;;;;;;156.03;53.10;;;-7.30;99.90;;;;;;5105214;28;20044;-75
2021/12/26 09:24:51;;;;;;;89.17;37.03;;;-7.20;99.90;;;;;;5100960;28;20459;-74
2021/12/26 09:27:18;;;;;;;53.60;23.40;;;-7.10;99.90;;;;;;5097911;28;20105;-75
2021/12/26 09:29:43;;;;;;;41.87;18.27;;;-7.10;99.90;;;;;;5097708;28;20048;-74
2021/12/26 09:32:09;;;;;;;39.83;18.25;;;-7.10;99.90;;;;;;5096085;28;20020;-75
2021/12/26 09:34:36;;;;;;;43.50;18.53;;;-7.10;99.90;;;;;;5098729;28;20036;-74
2021/12/26 09:37:04;;;;;;;65.37;31.53;;;-7.00;99.90;;;;;;5099156;28;20091;-74
2021/12/26 09:39:29;;;;;;;71.13;27.90;;;-6.90;99.90;;;;;;5107389;28;20031;-75
2021/12/26 09:41:55;;;;;;;33.83;13.93;;;-6.90;99.90;;;;;;5105183;28;20381;-75
2021/12/26 09:44:22;;;;;;;36.27;15.23;;;-6.90;99.90;;;;;;5109143;28;20036;-75
2021/12/26 09:46:48;;;;;;;39.33;15.47;;;-6.90;99.90;;;;;;5103237;28;20031;-75
2021/12/26 09:49:16;;;;;;;35.47;15.27;;;-6.80;99.90;;;;;;5111305;28;20032;-75
2021/12/26 09:51:42;;;;;;;35.65;14.20;;;-6.70;99.90;;;;;;5103439;28;20369;-74
2021/12/26 09:54:08;;;;;;;50.97;20.13;;;-6.60;99.90;;;;;;5096494;28;20028;-75
2021/12/26 09:56:35;;;;;;;86.00;31.63;;;-6.60;99.90;;;;;;5102203;28;20019;-75
2021/12/26 09:59:16;;;;;;;60.08;24.23;;;-6.60;99.90;;;;;;5100128;28;20040;-72
2021/12/26 10:01:44;;;;;;;48.13;19.00;;;-6.50;99.90;;;;;;5096194;28;20111;-73
2021/12/26 10:04:25;;;;;;;56.85;19.92;;;-6.50;99.90;;;;;;5092632;28;20066;-72
2021/12/26 10:06:58;;;;;;;54.58;22.50;;;-6.40;99.90;;;;;;5106853;28;20385;-73
2021/12/26 10:09:24;;;;;;;49.67;21.48;;;-6.30;99.90;;;;;;5128738;27;20040;-73
2021/12/26 10:11:52;;;;;;;71.18;25.05;;;-6.30;99.90;;;;;;5101345;28;20482;-73
2021/12/26 10:14:21;;;;;;;74.40;31.02;;;-6.20;99.90;;;;;;5122088;27;20080;-74
2021/12/26 10:16:49;;;;;;;61.17;22.48;;;-6.10;99.90;;;;;;5093339;28;20074;-74
2021/12/26 10:19:15;;;;;;;94.53;27.83;;;-6.10;99.90;;;;;;5107324;28;20036;-75
2021/12/26 10:21:44;;;;;;;112.88;40.85;;;-6.00;99.90;;;;;;5092482;28;20013;-74
2021/12/26 10:24:19;;;;;;;71.15;28.15;;;-6.00;99.90;;;;;;5096334;28;20036;-75
2021/12/26 10:26:54;;;;;;;229.50;76.07;;;-5.90;99.80;;;;;;5117587;27;20118;-76
2021/12/26 10:29:34;;;;;;;68.35;25.05;;;-5.90;98.50;;;;;;5098471;28;20058;-78
2021/12/26 10:32:07;;;;;;;106.30;35.65;;;-5.80;95.90;;;;;;5108080;28;20327;-76
2021/12/26 10:34:32;;;;;;;66.10;24.85;;;-5.90;95.10;;;;;;5090996;28;20028;-75
2021/12/26 10:37:00;;;;;;;106.70;34.40;;;-5.80;95.80;;;;;;5093794;28;20028;-76
2021/12/26 10:39:30;;;;;;;61.05;24.33;;;-5.70;97.80;;;;;;5120755;27;20115;-77
2021/12/26 10:42:01;;;;;;;57.88;21.75;;;-5.70;99.30;;;;;;5108042;28;20035;-77
2021/12/26 10:44:31;;;;;;;66.30;24.83;;;-5.60;99.00;;;;;;5110781;28;20047;-75
2021/12/26 10:47:10;;;;;;;144.48;49.47;;;-5.60;97.70;;;;;;5112120;28;20341;-76
2021/12/26 10:49:39;;;;;;;60.20;23.48;;;-5.60;95.90;;;;;;5111400;28;20026;-75
2021/12/26 10:52:15;;;;;;;65.53;24.45;;;-5.60;93.40;;;;;;5112028;28;20024;-75
2021/12/26 10:54:44;;;;;;;62.53;23.35;;;-5.50;93.80;;;;;;5110095;28;20031;-75
2021/12/26 10:57:19;;;;;;;51.65;23.90;;;-5.50;91.30;;;;;;5110192;28;20042;-76
2021/12/26 10:59:47;;;;;;;68.40;27.05;;;-5.50;88.30;;;;;;5110101;28;20028;-76
2021/12/26 11:02:25;;;;;;;65.57;25.83;;;-5.40;89.20;;;;;;5109978;28;20026;-76
2021/12/26 11:05:02;;;;;;;106.90;37.55;;;-5.40;88.10;;;;;;5109936;28;20028;-75
2021/12/26 11:07:29;;;;;;;538.75;177.55;;;-5.30;87.50;;;;;;5108264;28;20313;-75
2021/12/26 11:10:11;;;;;;;216.60;62.78;;;-5.20;86.00;;;;;;5099584;28;20513;-73
2021/12/26 11:12:49;;;;;;;42.22;17.83;;;-5.20;83.80;;;;;;5096172;28;20532;-76
2021/12/26 11:15:16;;;;;;;38.10;15.65;;;-5.10;81.30;;;;;;5090982;28;20080;-75
2021/12/26 11:18:02;;;;;;;36.75;15.55;;;-5.10;79.40;;;;;;5091441;28;20020;-73
2021/12/26 11:20:30;;;;;;;38.17;13.45;;;-5.10;79.60;;;;;;5112709;28;20070;-74
2021/12/26 11:22:57;;;;;;;56.95;21.67;;;-5.00;79.80;;;;;;5111339;28;20080;-73
2021/12/26 11:25:23;;;;;;;39.13;15.05;;;-5.00;79.20;;;;;;5112687;28;20459;-74
2021/12/26 11:27:50;;;;;;;271.92;85.70;;;-4.90;76.50;;;;;;5112261;27;20485;-79
2021/12/26 11:30:17;;;;;;;35.90;13.48;;;-4.90;75.90;;;;;;5089564;28;20036;-77
2021/12/26 11:32:44;;;;;;;71.43;23.05;;;-4.90;73.30;;;;;;5092955;28;20501;-78
2021/12/26 11:35:10;;;;;;;70.30;22.20;;;-4.90;72.90;;;;;;5091411;28;20027;-77
2021/12/26 11:37:37;;;;;;;42.00;15.48;;;-4.80;74.60;;;;;;5093924;28;20020;-78
2021/12/26 11:40:10;;;;;;;33.67;14.45;;;-4.80;75.30;;;;;;5090928;28;20028;-76
2021/12/26 11:42:58;;;;;;;20.20;7.22;;;-4.70;74.80;;;;;;5092754;28;20362;-78
2021/12/26 11:45:35;;;;;;;18.30;8.10;;;-4.70;70.40;;;;;;5091419;28;20032;-76
2021/12/26 11:48:27;;;;;;;25.52;10.85;;;-4.70;69.30;;;;;;5092312;28;20040;-76
2021/12/26 11:51:22;;;;;;;44.50;15.48;;;-4.70;68.10;;;;;;5091328;28;20032;-76
2021/12/26 11:54:26;;;;;;;22.40;10.25;;;-4.60;66.10;;;;;;5093806;28;20032;-75
2021/12/26 11:57:20;;;;;;;19.92;7.20;;;-4.60;65.20;;;;;;5091293;28;20036;-75
2021/12/26 12:00:07;;;;;;;13.25;5.45;;;-4.70;62.90;;;;;;5094173;28;20024;-75
2021/12/26 12:02:43;;;;;;;12.77;6.15;;;-4.70;61.70;;;;;;5090950;28;20032;-75
2021/12/26 12:05:13;;;;;;;12.52;4.90;;;-4.60;61.50;;;;;;5090471;28;20378;-74
2021/12/26 12:07:49;;;;;;;12.95;6.07;;;-4.60;61.10;;;;;;5088351;28;20042;-74
2021/12/26 12:10:41;;;;;;;76.90;28.08;;;-4.60;60.50;;;;;;5091479;28;20099;-74
2021/12/26 12:13:28;;;;;;;30.67;13.20;;;-4.60;60.80;;;;;;5099118;28;20019;-74
2021/12/26 12:16:03;;;;;;;9.18;5.38;;;-4.50;60.70;;;;;;5084471;28;20042;-74
2021/12/26 12:18:33;;;;;;;10.38;4.53;;;-4.50;59.70;;;;;;5095732;28;20651;-75
2021/12/26 12:21:10;;;;;;;8.43;4.85;;;-4.50;58.60;;;;;;5094164;28;20065;-74
2021/12/26 12:23:57;;;;;;;9.82;5.18;;;-4.50;58.50;;;;;;5096246;28;20055;-73
2021/12/26 12:26:43;;;;;;;22.65;11.18;;;-4.60;57.40;;;;;;5093180;28;20028;-74
2021/12/26 12:29:11;;;;;;;24.77;8.05;;;-4.50;58.40;;;;;;5096285;28;20495;-75
2021/12/26 12:31:37;;;;;;;29.52;11.35;;;-4.50;59.60;;;;;;5093234;28;20069;-74